Time;durP1;ratioP1;P1;durP2;ratioP2;P2;SDS_P1;SDS_P2;PMS_P1;PMS_P2;Temp;Humidity;BMP_temperature;BMP_pressure;BME280_temperature;BME280_humidity;BME280_pressure;Samples;Min_cycle;Max_cycle;Signal;HPM_P1;HPM_P2
2023/10/25 00:01:08;;;;;;;;;;;;;;;20.79;43.84;100187.34;103119;1291;62191;-83
2023/10/25 00:03:35;;;;;;;;;;;;;;;20.79;43.86;100191.58;103118;1291;63467;-83
2023/10/25 00:06:00;;;;;;;;;;;;;;;20.79;44.05;100188.76;103140;1291;62200;-83
2023/10/25 00:08:26;;;;;;;;;;;;;;;20.78;43.85;100181.80;103109;1291;62288;-83
2023/10/25 00:10:59;;;;;;;;;;;;;;;20.78;43.77;100180.71;103037;1291;76449;-82
2023/10/25 00:13:25;;;;;;;;;;;;;;;20.79;43.92;100180.36;103124;1291;63376;-83
2023/10/25 00:15:50;;;;;;;;;;;;;;;20.79;43.87;100174.99;103152;1291;62194;-82
2023/10/25 00:18:16;;;;;;;;;;;;;;;20.78;43.85;100168.39;103101;1294;62260;-82
2023/10/25 00:20:44;;;;;;;;;;;;;;;20.78;43.93;100163.40;103088;1291;63397;-83
2023/10/25 00:23:10;;;;;;;;;;;;;;;20.79;43.95;100158.54;103053;1292;62137;-83
2023/10/25 00:25:35;;;;;;;;;;;;;;;20.79;43.80;100156.75;103088;1291;62130;-85
2023/10/25 00:28:01;;;;;;;;;;;;;;;20.78;43.82;100155.71;103093;1297;62216;-85
2023/10/25 00:30:27;;;;;;;;;;;;;;;20.78;43.95;100158.20;103087;1295;62710;-83
2023/10/25 00:32:52;;;;;;;;;;;;;;;20.79;43.82;100155.67;103057;1292;74412;-84
2023/10/25 00:35:17;;;;;;;;;;;;;;;20.78;43.82;100147.83;103165;1291;62202;-82
2023/10/25 00:37:43;;;;;;;;;;;;;;;20.78;43.90;100145.85;103145;1291;62200;-83
2023/10/25 00:40:10;;;;;;;;;;;;;;;20.78;43.85;100144.78;103088;1291;62099;-83
2023/10/25 00:42:35;;;;;;;;;;;;;;;20.78;43.91;100144.44;103029;1293;62128;-82
2023/10/25 00:45:01;;;;;;;;;;;;;;;20.78;43.95;100147.84;103036;1294;62526;-83
2023/10/25 00:47:26;;;;;;;;;;;;;;;20.78;43.81;100143.55;102952;1293;63210;-83
2023/10/25 00:49:52;;;;;;;;;;;;;;;20.78;43.98;100133.35;103118;1294;62175;-82
2023/10/25 00:52:18;;;;;;;;;;;;;;;20.78;43.90;100129.96;103013;1297;62251;-83
2023/10/25 00:54:43;;;;;;;;;;;;;;;20.78;43.81;100131.76;102943;1294;63166;-83
2023/10/25 00:57:08;;;;;;;;;;;;;;;20.77;43.96;100130.71;103015;1294;62299;-82
2023/10/25 00:59:36;;;;;;;;;;;;;;;20.78;43.89;100127.27;102938;1295;62274;-82
2023/10/25 01:02:02;;;;;;;;;;;;;;;20.78;43.80;100126.75;102786;1295;62169;-84
2023/10/25 01:04:28;;;;;;;;;;;;;;;20.78;43.95;100130.67;102579;1297;62263;-82
2023/10/25 01:06:53;;;;;;;;;;;;;;;20.78;43.78;100130.50;102560;1303;62349;-82
2023/10/25 01:09:19;;;;;;;;;;;;;;;20.78;43.80;100127.08;102638;1298;62314;-82
2023/10/25 01:11:45;;;;;;;;;;;;;;;20.79;43.84;100122.06;102547;1303;62304;-82
2023/10/25 01:14:10;;;;;;;;;;;;;;;20.78;43.86;100118.52;102599;1297;62335;-83
2023/10/25 01:16:36;;;;;;;;;;;;;;;20.77;43.84;100128.94;102594;1301;69799;-83
2023/10/25 01:19:01;;;;;;;;;;;;;;;20.78;43.80;100128.91;102645;1298;62254;-83
2023/10/25 01:21:27;;;;;;;;;;;;;;;20.78;43.71;100128.89;102730;1297;63552;-83
2023/10/25 01:23:55;;;;;;;;;;;;;;;20.78;43.75;100133.55;102626;1297;62293;-83
2023/10/25 01:26:20;;;;;;;;;;;;;;;20.77;43.91;100137.88;102773;1299;63396;-82
2023/10/25 01:28:46;;;;;;;;;;;;;;;20.78;43.85;100140.54;102620;1297;63393;-83
2023/10/25 01:31:11;;;;;;;;;;;;;;;20.78;43.74;100140.00;102636;1295;63099;-82
2023/10/25 01:33:37;;;;;;;;;;;;;;;20.77;43.72;100131.27;102631;1297;62279;-82
2023/10/25 01:36:02;;;;;;;;;;;;;;;20.78;43.86;100132.83;102660;1297;63638;-82
2023/10/25 01:38:28;;;;;;;;;;;;;;;20.78;43.78;100129.42;102666;1297;62388;-83
2023/10/25 01:40:53;;;;;;;;;;;;;;;20.78;43.86;100125.33;102683;1295;62116;-82
2023/10/25 01:43:18;;;;;;;;;;;;;;;20.78;43.91;100121.59;103005;1291;63853;-83
2023/10/25 01:45:44;;;;;;;;;;;;;;;20.77;43.90;100116.96;103118;1295;62201;-83
2023/10/25 01:48:09;;;;;;;;;;;;;;;20.77;43.81;100121.45;103164;1291;62196;-83
2023/10/25 01:50:35;;;;;;;;;;;;;;;20.77;43.83;100122.86;103060;1292;62201;-83
2023/10/25 01:53:00;;;;;;;;;;;;;;;20.78;43.90;100118.00;103133;1297;62530;-82
2023/10/25 01:55:26;;;;;;;;;;;;;;;20.78;43.86;100119.44;103141;1291;62336;-83
2023/10/25 01:57:51;;;;;;;;;;;;;;;20.77;43.88;100120.20;103094;1291;62126;-83
2023/10/25 02:00:17;;;;;;;;;;;;;;;20.77;43.91;100124.64;103082;1291;63758;-84
2023/10/25 02:02:43;;;;;;;;;;;;;;;20.78;43.78;100126.78;102973;1291;62223;-82
2023/10/25 02:05:08;;;;;;;;;;;;;;;20.78;43.71;100125.70;102988;1296;62692;-82
2023/10/25 02:07:34;;;;;;;;;;;;;;;20.77;43.92;100115.18;103128;1291;62257;-83
2023/10/25 02:10:00;;;;;;;;;;;;;;;20.77;43.75;100104.45;103040;1291;62126;-83
2023/10/25 02:12:25;;;;;;;;;;;;;;;20.77;43.84;100096.61;103068;1290;62197;-82
2023/10/25 02:14:51;;;;;;;;;;;;;;;20.77;43.85;100096.40;103117;1295;62290;-83
2023/10/25 02:17:17;;;;;;;;;;;;;;;20.77;43.86;100096.06;103104;1291;62201;-83
2023/10/25 02:19:45;;;;;;;;;;;;;;;20.77;43.82;100086.73;103131;1292;62873;-82
2023/10/25 02:22:10;;;;;;;;;;;;;;;20.77;43.82;100076.21;102861;1291;365110;-83
2023/10/25 02:24:36;;;;;;;;;;;;;;;20.77;43.78;100072.12;103153;1291;62107;-82
2023/10/25 02:27:01;;;;;;;;;;;;;;;20.76;43.78;100069.98;103118;1291;63528;-83
2023/10/25 02:29:27;;;;;;;;;;;;;;;20.76;43.90;100071.27;103152;1292;74201;-82
2023/10/25 02:31:53;;;;;;;;;;;;;;;20.76;43.77;100070.90;103076;1290;62307;-83
2023/10/25 02:34:20;;;;;;;;;;;;;;;20.76;43.83;100067.15;103215;1291;62214;-83
2023/10/25 02:36:45;;;;;;;;;;;;;;;20.77;43.89;100059.24;103147;1292;62130;-82
2023/10/25 02:39:11;;;;;;;;;;;;;;;20.76;43.80;100050.49;103064;1291;62226;-82
2023/10/25 02:41:37;;;;;;;;;;;;;;;20.77;43.87;100050.29;103174;1291;62213;-84
2023/10/25 02:44:02;;;;;;;;;;;;;;;20.76;43.78;100048.52;103104;1291;62224;-83
2023/10/25 02:46:28;;;;;;;;;;;;;;;20.76;43.81;100042.81;103097;1291;62196;-83
2023/10/25 02:48:54;;;;;;;;;;;;;;;20.76;43.84;100037.29;103119;1292;62291;-82
2023/10/25 02:51:19;;;;;;;;;;;;;;;20.76;43.90;100033.16;103171;1291;62266;-82
2023/10/25 02:53:45;;;;;;;;;;;;;;;20.77;43.90;100044.92;102966;1291;62237;-82
2023/10/25 02:56:10;;;;;;;;;;;;;;;20.76;43.88;100051.92;103143;1292;62280;-82
2023/10/25 02:58:36;;;;;;;;;;;;;;;20.76;43.81;100043.35;103142;1291;62306;-82
2023/10/25 03:01:01;;;;;;;;;;;;;;;20.76;43.71;100041.55;103048;1292;62179;-82
2023/10/25 03:03:27;;;;;;;;;;;;;;;20.76;43.81;100041.55;103096;1291;62141;-83
2023/10/25 03:05:53;;;;;;;;;;;;;;;20.76;43.82;100038.35;103125;1291;62301;-82
2023/10/25 03:08:19;;;;;;;;;;;;;;;20.76;43.83;100040.66;103018;1291;62564;-82
2023/10/25 03:10:44;;;;;;;;;;;;;;;20.76;43.76;100032.98;103123;1296;62202;-83
2023/10/25 03:13:10;;;;;;;;;;;;;;;20.76;43.79;100011.36;103087;1291;62300;-84
2023/10/25 03:15:35;;;;;;;;;;;;;;;20.76;43.78;99984.17;103079;1292;63374;-84
2023/10/25 03:18:01;;;;;;;;;;;;;;;20.76;43.76;99949.89;103097;1296;62218;-83
2023/10/25 03:20:27;;;;;;;;;;;;;;;20.75;43.76;99930.27;103152;1291;62212;-83
2023/10/25 03:22:52;;;;;;;;;;;;;;;20.75;43.76;99931.02;103043;1291;62217;-83
2023/10/25 03:25:18;;;;;;;;;;;;;;;20.74;43.92;99934.48;103113;1291;62183;-83
2023/10/25 03:27:43;;;;;;;;;;;;;;;20.74;43.84;99940.58;103114;1291;75116;-83
2023/10/25 03:30:09;;;;;;;;;;;;;;;20.73;43.72;99956.13;103057;1294;62083;-83
2023/10/25 03:32:35;;;;;;;;;;;;;;;20.73;43.78;99969.23;103221;1291;63399;-82
2023/10/25 03:35:00;;;;;;;;;;;;;;;20.72;43.85;99983.27;103060;1291;62202;-82
2023/10/25 03:37:26;;;;;;;;;;;;;;;20.70;43.73;99991.98;103032;1291;62188;-83
2023/10/25 03:39:51;;;;;;;;;;;;;;;20.69;43.77;99990.34;103122;1292;62516;-83
2023/10/25 03:42:17;;;;;;;;;;;;;;;20.68;43.80;99994.70;103093;1292;62427;-83
2023/10/25 03:44:43;;;;;;;;;;;;;;;20.66;43.79;100010.55;103071;1291;62232;-83
2023/10/25 03:47:08;;;;;;;;;;;;;;;20.65;43.69;100020.30;103046;1296;62144;-83
2023/10/25 03:49:34;;;;;;;;;;;;;;;20.63;43.74;100025.79;103037;1293;62224;-82
2023/10/25 03:51:59;;;;;;;;;;;;;;;20.62;43.67;100020.50;103225;1297;62271;-82
2023/10/25 03:54:24;;;;;;;;;;;;;;;20.61;43.65;100013.80;103322;1293;62285;-81
2023/10/25 03:56:51;;;;;;;;;;;;;;;20.61;43.68;100006.85;103130;1293;62257;-82
2023/10/25 03:59:17;;;;;;;;;;;;;;;20.60;43.69;100002.27;103127;1292;62288;-82
2023/10/25 04:01:42;;;;;;;;;;;;;;;20.60;43.65;100004.41;103307;1298;63291;-81
2023/10/25 04:04:09;;;;;;;;;;;;;;;20.60;43.56;99999.95;103144;1292;62231;-81
2023/10/25 04:06:35;;;;;;;;;;;;;;;20.59;43.55;99989.08;103071;1293;62253;-83
2023/10/25 04:09:01;;;;;;;;;;;;;;;20.59;43.48;99994.85;103001;1296;63156;-82
2023/10/25 04:11:28;;;;;;;;;;;;;;;20.58;43.56;100003.70;102864;1293;62213;-82
2023/10/25 04:13:53;;;;;;;;;;;;;;;20.58;43.45;100005.52;102939;1298;75273;-81
2023/10/25 04:16:18;;;;;;;;;;;;;;;20.56;43.54;100002.20;103082;1294;62249;-82
2023/10/25 04:18:44;;;;;;;;;;;;;;;20.55;43.52;99999.12;103329;1293;62218;-82
2023/10/25 04:21:10;;;;;;;;;;;;;;;20.54;43.47;99999.34;103234;1294;62200;-82
2023/10/25 04:23:36;;;;;;;;;;;;;;;20.54;43.52;100000.80;103194;1291;62210;-81
2023/10/25 04:26:15;;;;;;;;;;;;;;;20.53;43.48;99991.56;103228;1291;62683;-82
2023/10/25 04:28:41;;;;;;;;;;;;;;;20.53;43.55;99988.40;103319;1292;62024;-82
2023/10/25 04:31:09;;;;;;;;;;;;;;;20.52;43.59;99984.19;103270;1293;62129;-81
2023/10/25 04:33:37;;;;;;;;;;;;;;;20.52;43.58;99986.33;103380;1293;72287;-82
2023/10/25 04:36:04;;;;;;;;;;;;;;;20.51;43.68;99985.70;103637;1292;74183;-82
2023/10/25 04:38:32;;;;;;;;;;;;;;;20.51;43.70;99988.39;103529;1293;62108;-81
2023/10/25 04:40:57;;;;;;;;;;;;;;;20.50;43.51;100003.46;103258;1291;62169;-82
2023/10/25 04:43:23;;;;;;;;;;;;;;;20.50;43.70;100003.98;103475;1297;62270;-82
2023/10/25 04:45:48;;;;;;;;;;;;;;;20.51;43.60;99994.46;103356;1296;62010;-82
2023/10/25 04:48:14;;;;;;;;;;;;;;;20.51;43.67;99996.02;103502;1291;62189;-82
2023/10/25 04:50:40;;;;;;;;;;;;;;;20.52;43.60;99980.24;103623;1293;62210;-81
2023/10/25 04:53:05;;;;;;;;;;;;;;;20.52;43.60;99962.91;103658;1293;62104;-82
2023/10/25 04:55:34;;;;;;;;;;;;;;;20.51;43.54;99952.39;104007;1293;62037;-82
2023/10/25 04:57:59;;;;;;;;;;;;;;;20.51;43.54;99948.52;104788;1293;75335;-82
2023/10/25 05:00:25;;;;;;;;;;;;;;;20.50;43.64;99950.89;105144;1291;62195;-82
2023/10/25 05:02:50;;;;;;;;;;;;;;;20.50;43.73;99960.71;104919;1293;60336;-82
2023/10/25 05:05:16;;;;;;;;;;;;;;;20.51;43.76;99957.65;104522;1291;62061;-83
2023/10/25 05:07:41;;;;;;;;;;;;;;;20.51;43.84;99944.18;104591;1291;62566;-83
2023/10/25 05:10:07;;;;;;;;;;;;;;;20.52;43.87;99944.11;104519;1291;75072;-82
2023/10/25 05:12:38;;;;;;;;;;;;;;;20.51;43.84;99925.23;104560;1293;60505;-79
2023/10/25 05:15:07;;;;;;;;;;;;;;;20.49;43.86;99910.44;104722;1292;62014;-79
2023/10/25 05:17:33;;;;;;;;;;;;;;;20.48;43.96;99916.39;103980;1292;72509;-79
2023/10/25 05:19:59;;;;;;;;;;;;;;;20.49;43.82;99922.40;103779;1293;62203;-80
2023/10/25 05:22:27;;;;;;;;;;;;;;;20.50;44.09;99918.23;104045;1293;60395;-82
2023/10/25 05:24:53;;;;;;;;;;;;;;;20.50;44.10;99910.30;104342;1294;60325;-82
2023/10/25 05:27:19;;;;;;;;;;;;;;;20.50;44.11;99900.37;104317;1293;62218;-82
2023/10/25 05:29:45;;;;;;;;;;;;;;;20.47;43.96;99897.73;104466;1296;62152;-83
2023/10/25 05:32:13;;;;;;;;;;;;;;;20.43;44.13;99896.39;104675;1293;62157;-82
2023/10/25 05:34:39;;;;;;;;;;;;;;;20.42;44.05;99878.77;104563;1295;62063;-82
2023/10/25 05:37:04;;;;;;;;;;;;;;;20.43;43.94;99863.71;104286;1294;62148;-82
2023/10/25 05:39:30;;;;;;;;;;;;;;;20.45;44.03;99864.11;104399;1297;62118;-81
2023/10/25 05:41:56;;;;;;;;;;;;;;;20.47;43.84;99853.77;104691;1294;62153;-82
2023/10/25 05:44:21;;;;;;;;;;;;;;;20.49;43.74;99847.88;104724;1298;59908;-83
2023/10/25 05:46:46;;;;;;;;;;;;;;;20.50;43.84;99838.52;105163;1295;62117;-82
2023/10/25 05:49:12;;;;;;;;;;;;;;;20.50;43.95;99821.89;104033;1294;62135;-81
2023/10/25 05:51:38;;;;;;;;;;;;;;;20.50;43.76;99835.09;104042;1294;62181;-81
2023/10/25 05:54:04;;;;;;;;;;;;;;;20.50;43.90;99878.27;103826;1294;63299;-81
2023/10/25 05:56:30;;;;;;;;;;;;;;;20.51;43.86;99906.98;103964;1293;62265;-81
2023/10/25 05:58:55;;;;;;;;;;;;;;;20.50;43.89;99909.05;104027;1296;62177;-81
2023/10/25 06:01:30;;;;;;;;;;;;;;;20.48;43.79;99916.91;104083;1294;72285;-81
2023/10/25 06:03:56;;;;;;;;;;;;;;;20.46;43.86;99926.75;104180;1294;75200;-83
2023/10/25 06:06:21;;;;;;;;;;;;;;;20.42;43.97;99923.48;105160;1293;62116;-82
2023/10/25 06:08:47;;;;;;;;;;;;;;;20.39;43.83;99929.27;104514;1293;62089;-82
2023/10/25 06:11:13;;;;;;;;;;;;;;;20.36;43.90;99925.06;105224;1291;62210;-82
2023/10/25 06:13:38;;;;;;;;;;;;;;;20.31;44.09;99936.17;104910;1292;62064;-80
2023/10/25 06:16:04;;;;;;;;;;;;;;;20.26;44.16;99943.40;104978;1294;59988;-80
2023/10/25 06:18:29;;;;;;;;;;;;;;;20.25;44.26;99933.95;105089;1291;62273;-80
2023/10/25 06:20:56;;;;;;;;;;;;;;;20.28;44.33;99930.36;105149;1291;62079;-80
2023/10/25 06:23:21;;;;;;;;;;;;;;;20.28;44.41;99924.46;105308;1292;59989;-80
2023/10/25 06:25:47;;;;;;;;;;;;;;;20.30;44.40;99931.84;104422;1296;62136;-80
2023/10/25 06:28:12;;;;;;;;;;;;;;;20.32;44.44;99923.79;104589;1290;60685;-80
2023/10/25 06:30:38;;;;;;;;;;;;;;;20.34;44.36;99909.33;104731;1292;61324;-80
2023/10/25 06:33:04;;;;;;;;;;;;;;;20.36;44.44;99910.91;105000;1291;62116;-80
2023/10/25 06:35:30;;;;;;;;;;;;;;;20.39;44.39;99923.23;104751;1293;62077;-80
2023/10/25 06:37:55;;;;;;;;;;;;;;;20.40;44.37;99926.33;104938;1291;62106;-80
2023/10/25 06:40:21;;;;;;;;;;;;;;;20.42;44.40;99930.27;104874;1291;62192;-81
2023/10/25 06:42:47;;;;;;;;;;;;;;;20.44;44.38;99925.63;104773;1294;62199;-80
2023/10/25 06:45:14;;;;;;;;;;;;;;;20.46;44.35;99920.14;104808;1291;61973;-80
2023/10/25 06:47:41;;;;;;;;;;;;;;;20.48;44.39;99920.90;104757;1292;72515;-81
2023/10/25 06:50:07;;;;;;;;;;;;;;;20.48;44.26;99919.60;104731;1293;75795;-80
2023/10/25 06:52:33;;;;;;;;;;;;;;;20.50;44.34;99911.10;104698;1291;62139;-80
2023/10/25 06:54:58;;;;;;;;;;;;;;;20.49;44.39;99911.83;104615;1291;62099;-80
2023/10/25 06:57:24;;;;;;;;;;;;;;;20.44;44.29;99910.59;104665;1293;62139;-80
2023/10/25 06:59:49;;;;;;;;;;;;;;;20.42;44.27;99906.90;104592;1291;62295;-80
2023/10/25 07:02:36;;;;;;;;;;;;;;;20.40;44.44;99911.66;104308;1292;62148;-80
2023/10/25 07:05:05;;;;;;;;;;;;;;;20.40;44.31;99912.00;104646;1293;62555;-79
2023/10/25 07:07:30;;;;;;;;;;;;;;;20.42;44.39;99907.07;104707;1293;62039;-80
2023/10/25 07:09:56;;;;;;;;;;;;;;;20.40;44.32;99896.83;104587;1294;62139;-80
2023/10/25 07:12:22;;;;;;;;;;;;;;;20.41;44.27;99897.98;104356;1296;60830;-80
2023/10/25 07:14:49;;;;;;;;;;;;;;;20.42;44.26;99893.26;104493;1292;62070;-80
2023/10/25 07:17:14;;;;;;;;;;;;;;;20.43;44.26;99892.97;104183;1296;62160;-80
2023/10/25 07:19:43;;;;;;;;;;;;;;;20.45;44.34;99888.41;104160;1290;62119;-81
2023/10/25 07:22:08;;;;;;;;;;;;;;;20.45;44.27;99881.98;104060;1291;63315;-81
2023/10/25 07:24:34;;;;;;;;;;;;;;;20.45;44.22;99878.39;104408;1291;62110;-80
2023/10/25 07:26:59;;;;;;;;;;;;;;;20.46;44.30;99884.04;104325;1294;59793;-80
2023/10/25 07:29:25;;;;;;;;;;;;;;;20.47;44.27;99882.14;104160;1293;62212;-80
2023/10/25 07:31:51;;;;;;;;;;;;;;;20.48;44.20;99881.89;104224;1293;71536;-81
2023/10/25 07:34:17;;;;;;;;;;;;;;;20.50;44.31;99886.58;104418;1293;74948;-80
2023/10/25 07:36:43;;;;;;;;;;;;;;;20.51;44.34;99889.30;104232;1293;62163;-80
2023/10/25 07:39:08;;;;;;;;;;;;;;;20.52;44.24;99886.05;104443;1293;62289;-81
2023/10/25 07:41:34;;;;;;;;;;;;;;;20.52;44.29;99882.08;104598;1296;62239;-80
2023/10/25 07:44:00;;;;;;;;;;;;;;;20.53;44.37;99884.00;104996;1293;60154;-80
2023/10/25 07:46:26;;;;;;;;;;;;;;;20.54;44.22;99881.08;104969;1293;75248;-80
2023/10/25 07:48:51;;;;;;;;;;;;;;;20.53;44.30;99877.70;104922;1291;62292;-80
2023/10/25 07:51:17;;;;;;;;;;;;;;;20.54;44.21;99878.92;104846;1294;62126;-80
2023/10/25 07:53:42;;;;;;;;;;;;;;;20.53;44.35;99880.90;104718;1293;62769;-80
2023/10/25 07:56:08;;;;;;;;;;;;;;;20.53;44.20;99883.60;104897;1292;62221;-81
2023/10/25 07:58:33;;;;;;;;;;;;;;;20.53;44.20;99892.16;104918;1296;60201;-80
2023/10/25 08:00:59;;;;;;;;;;;;;;;20.51;44.18;99887.86;105192;1293;60297;-79
2023/10/25 08:03:26;;;;;;;;;;;;;;;20.51;44.36;99886.81;104928;1296;62117;-80
2023/10/25 08:05:51;;;;;;;;;;;;;;;20.51;44.33;99876.30;104721;1293;60356;-80
2023/10/25 08:08:17;;;;;;;;;;;;;;;20.51;44.39;99882.55;105090;1293;60483;-80
2023/10/25 08:10:42;;;;;;;;;;;;;;;20.54;44.44;99886.43;104931;1294;60269;-80
2023/10/25 08:13:08;;;;;;;;;;;;;;;20.56;44.41;99900.91;104919;1293;62107;-80
2023/10/25 08:15:36;;;;;;;;;;;;;;;20.57;44.52;99903.09;104836;1292;59926;-80
2023/10/25 08:18:02;;;;;;;;;;;;;;;20.59;44.45;99908.00;104822;1296;72499;-80
2023/10/25 08:20:27;;;;;;;;;;;;;;;20.60;44.34;99912.17;104858;1294;62185;-80
2023/10/25 08:22:52;;;;;;;;;;;;;;;20.61;44.36;99919.09;104757;1296;60849;-80
2023/10/25 08:25:19;;;;;;;;;;;;;;;20.62;44.54;99918.44;104953;1294;60627;-80
2023/10/25 08:27:44;;;;;;;;;;;;;;;20.63;44.43;99914.79;104930;1295;61441;-80
2023/10/25 08:30:10;;;;;;;;;;;;;;;20.64;44.42;99912.08;104749;1296;62332;-80
2023/10/25 08:32:36;;;;;;;;;;;;;;;20.63;44.26;99913.55;104593;1297;75057;-80
2023/10/25 08:35:01;;;;;;;;;;;;;;;20.64;44.20;99912.63;104607;1294;60698;-80
2023/10/25 08:37:27;;;;;;;;;;;;;;;20.64;44.41;99903.77;104462;1296;61227;-80
2023/10/25 08:39:53;;;;;;;;;;;;;;;20.64;44.13;99900.74;104412;1300;60411;-80
2023/10/25 08:42:18;;;;;;;;;;;;;;;20.66;44.12;99899.38;104579;1300;62158;-80
2023/10/25 08:44:43;;;;;;;;;;;;;;;20.67;44.19;99900.34;104549;1295;61257;-80
2023/10/25 08:47:09;;;;;;;;;;;;;;;20.67;44.23;99898.20;104453;1294;60729;-81
2023/10/25 08:49:36;;;;;;;;;;;;;;;20.67;44.09;99890.54;104716;1299;60564;-81
2023/10/25 08:52:01;;;;;;;;;;;;;;;20.66;44.13;99885.92;104627;1293;60968;-82
2023/10/25 08:54:27;;;;;;;;;;;;;;;20.66;44.06;99887.38;105199;1293;60782;-81
2023/10/25 08:56:53;;;;;;;;;;;;;;;20.66;44.14;99891.45;105088;1294;60312;-80
2023/10/25 08:59:18;;;;;;;;;;;;;;;20.67;44.09;99885.18;105219;1293;62065;-81
2023/10/25 09:01:44;;;;;;;;;;;;;;;20.67;44.15;99877.06;105205;1294;61222;-81
2023/10/25 09:04:10;;;;;;;;;;;;;;;20.69;44.22;99876.08;105047;1291;59860;-80
2023/10/25 09:06:35;;;;;;;;;;;;;;;20.72;44.36;99874.76;104717;1296;62152;-80
2023/10/25 09:09:05;;;;;;;;;;;;;;;20.75;44.43;99877.33;104781;1293;59905;-81
2023/10/25 09:11:38;;;;;;;;;;;;;;;20.78;44.64;99873.14;104835;1293;60581;-80
2023/10/25 09:14:04;;;;;;;;;;;;;;;20.83;44.82;99872.02;104584;1297;72799;-81
2023/10/25 09:16:30;;;;;;;;;;;;;;;20.87;44.89;99877.07;105907;1295;75933;-81
2023/10/25 09:18:56;;;;;;;;;;;;;;;20.90;44.78;99878.25;105819;1293;60020;-81
2023/10/25 09:21:27;;;;;;;;;;;;;;;20.90;44.75;99875.55;105809;1292;59310;-81
2023/10/25 09:23:57;;;;;;;;;;;;;;;20.91;44.84;99875.48;105748;1295;72479;-81
2023/10/25 09:26:23;;;;;;;;;;;;;;;20.91;44.77;99871.17;105882;1296;75554;-81
2023/10/25 09:28:54;;;;;;;;;;;;;;;20.90;44.67;99865.69;105972;1293;59374;-81
2023/10/25 09:31:26;;;;;;;;;;;;;;;20.91;44.70;99860.99;104467;1292;62120;-80
2023/10/25 09:33:52;;;;;;;;;;;;;;;20.91;44.57;99862.40;104383;1292;72302;-81
2023/10/25 09:36:21;;;;;;;;;;;;;;;20.90;44.57;99861.55;104769;1292;60230;-81
2023/10/25 09:38:48;;;;;;;;;;;;;;;20.91;44.39;99860.83;104891;1293;59988;-80
2023/10/25 09:41:14;;;;;;;;;;;;;;;20.91;44.52;99864.19;104691;1295;62118;-80
2023/10/25 09:43:41;;;;;;;;;;;;;;;20.90;44.37;99867.10;104705;1295;60742;-80
2023/10/25 09:46:07;;;;;;;;;;;;;;;20.91;44.25;99872.09;104563;1292;59844;-80
2023/10/25 09:48:34;;;;;;;;;;;;;;;20.90;44.24;99880.31;104604;1295;62078;-80
2023/10/25 09:51:09;;;;;;;;;;;;;;;20.91;44.25;99885.46;104260;1296;62158;-81
2023/10/25 09:53:51;;;;;;;;;;;;;;;20.91;44.24;99890.31;104304;1293;72656;-81
2023/10/25 09:56:18;;;;;;;;;;;;;;;20.92;44.31;99883.80;104474;1298;75541;-81
2023/10/25 09:58:43;;;;;;;;;;;;;;;20.92;44.14;99876.11;104374;1293;60175;-81
2023/10/25 10:01:10;;;;;;;;;;;;;;;20.92;44.10;99870.55;104402;1292;62119;-80
2023/10/25 10:03:37;;;;;;;;;;;;;;;20.93;44.28;99867.25;105827;1292;72243;-80
2023/10/25 10:06:02;;;;;;;;;;;;;;;20.94;44.23;99864.69;105412;1296;59667;-81
2023/10/25 10:08:36;;;;;;;;;;;;;;;20.96;44.20;99858.07;104803;1293;61007;-80
2023/10/25 10:11:02;;;;;;;;;;;;;;;20.97;44.21;99848.33;104875;1297;60459;-82
2023/10/25 10:13:27;;;;;;;;;;;;;;;20.98;44.32;99850.34;104739;1293;60775;-80
2023/10/25 10:16:00;;;;;;;;;;;;;;;20.99;44.30;99845.12;103812;1295;62202;-81
2023/10/25 10:18:27;;;;;;;;;;;;;;;20.99;44.26;99836.31;103732;1292;61976;-80
2023/10/25 10:21:00;;;;;;;;;;;;;;;21.00;44.22;99830.19;103779;1297;62121;-80
2023/10/25 10:23:35;;;;;;;;;;;;;;;21.01;44.24;99829.94;103862;1296;72340;-80
2023/10/25 10:26:02;;;;;;;;;;;;;;;21.01;44.21;99822.23;104117;1296;75402;-80
2023/10/25 10:28:41;;;;;;;;;;;;;;;21.01;44.30;99815.73;104021;1295;62665;-79
2023/10/25 10:31:07;;;;;;;;;;;;;;;21.02;44.47;99813.67;103948;1291;62149;-80
2023/10/25 10:33:45;;;;;;;;;;;;;;;21.03;44.25;99812.20;103990;1293;62238;-80
2023/10/25 10:36:11;;;;;;;;;;;;;;;21.04;44.24;99810.17;103800;1293;75115;-79
2023/10/25 10:38:55;;;;;;;;;;;;;;;21.04;44.15;99809.59;103627;1304;62898;-80
2023/10/25 10:41:30;;;;;;;;;;;;;;;21.04;44.22;99806.77;103523;1296;62127;-81
2023/10/25 10:43:55;;;;;;;;;;;;;;;21.04;43.95;99799.92;103547;1292;72453;-81
2023/10/25 10:46:21;;;;;;;;;;;;;;;21.04;44.02;99794.53;103728;1293;62841;-81
2023/10/25 10:48:46;;;;;;;;;;;;;;;21.04;43.91;99797.27;103630;1298;62310;-81
2023/10/25 10:51:12;;;;;;;;;;;;;;;21.04;43.97;99800.52;104043;1297;62228;-81
2023/10/25 10:53:38;;;;;;;;;;;;;;;21.03;43.99;99797.70;104644;1292;62202;-81
2023/10/25 10:56:04;;;;;;;;;;;;;;;21.04;43.98;99798.36;104688;1293;72632;-82
2023/10/25 10:58:29;;;;;;;;;;;;;;;21.04;44.03;99794.92;104507;1294;62238;-81
2023/10/25 11:00:55;;;;;;;;;;;;;;;21.05;44.03;99799.34;104817;1293;62849;-81
2023/10/25 11:03:20;;;;;;;;;;;;;;;21.05;44.03;99798.42;104758;1293;62210;-81
2023/10/25 11:05:45;;;;;;;;;;;;;;;21.05;43.93;99796.28;104958;1294;62232;-81
2023/10/25 11:08:13;;;;;;;;;;;;;;;21.06;44.00;99791.73;104693;1297;60077;-81
2023/10/25 11:10:38;;;;;;;;;;;;;;;21.06;43.87;99786.66;104827;1292;75066;-81
2023/10/25 11:13:10;;;;;;;;;;;;;;;21.07;43.83;99780.89;105109;1293;62228;-81
2023/10/25 11:15:35;;;;;;;;;;;;;;;21.09;43.80;99781.95;105124;1293;62189;-81
2023/10/25 11:18:01;;;;;;;;;;;;;;;21.10;43.69;99778.66;105117;1294;62907;-81
2023/10/25 11:20:27;;;;;;;;;;;;;;;21.11;43.66;99773.23;104856;1292;62059;-81
2023/10/25 11:22:53;;;;;;;;;;;;;;;21.12;43.62;99769.75;104860;1294;62115;-81
2023/10/25 11:25:20;;;;;;;;;;;;;;;21.12;43.51;99770.80;105044;1293;62174;-81
2023/10/25 11:27:46;;;;;;;;;;;;;;;21.13;43.60;99770.52;104787;1296;59999;-81
2023/10/25 11:30:11;;;;;;;;;;;;;;;21.15;43.66;99767.54;104712;1297;60042;-81
2023/10/25 11:32:37;;;;;;;;;;;;;;;21.17;43.54;99767.55;104361;1294;62118;-81
2023/10/25 11:35:04;;;;;;;;;;;;;;;21.17;43.55;99767.14;104807;1293;62289;-81
2023/10/25 11:37:46;;;;;;;;;;;;;;;21.17;43.52;99765.70;104721;1293;61997;-81
2023/10/25 11:40:12;;;;;;;;;;;;;;;21.17;43.44;99763.95;104349;1295;72492;-80
2023/10/25 11:42:37;;;;;;;;;;;;;;;21.17;43.41;99768.43;104510;1293;62266;-81
2023/10/25 11:45:03;;;;;;;;;;;;;;;21.17;43.31;99768.02;104502;1292;62090;-81
2023/10/25 11:47:29;;;;;;;;;;;;;;;21.17;43.26;99765.36;104465;1293;60850;-81
2023/10/25 11:49:55;;;;;;;;;;;;;;;21.18;43.21;99762.83;104246;1292;59974;-81
2023/10/25 11:52:25;;;;;;;;;;;;;;;21.18;43.04;99761.91;104509;1297;62103;-81
2023/10/25 11:54:55;;;;;;;;;;;;;;;21.18;42.90;99762.61;104627;1292;60104;-81
2023/10/25 11:57:30;;;;;;;;;;;;;;;21.18;42.87;99760.14;104466;1294;62048;-81
2023/10/25 11:59:56;;;;;;;;;;;;;;;21.18;42.79;99758.84;104592;1292;72488;-81
2023/10/25 12:02:22;;;;;;;;;;;;;;;21.18;42.73;99763.48;104622;1292;62151;-81
2023/10/25 12:04:48;;;;;;;;;;;;;;;21.18;42.58;99755.80;104917;1293;59810;-82
2023/10/25 12:07:14;;;;;;;;;;;;;;;21.18;42.57;99754.71;105145;1294;62152;-81
2023/10/25 12:09:41;;;;;;;;;;;;;;;21.18;42.45;99755.41;104708;1295;62082;-82
2023/10/25 12:12:12;;;;;;;;;;;;;;;21.20;42.51;99753.25;104437;1293;75233;-81
2023/10/25 12:14:37;;;;;;;;;;;;;;;21.21;42.57;99751.95;104489;1293;62216;-81
2023/10/25 12:17:03;;;;;;;;;;;;;;;21.21;42.51;99745.32;104299;1293;62046;-81
2023/10/25 12:19:29;;;;;;;;;;;;;;;21.20;42.44;99755.59;104099;1296;62180;-81
2023/10/25 12:21:56;;;;;;;;;;;;;;;21.20;42.52;99753.25;104218;1294;61911;-81
2023/10/25 12:24:22;;;;;;;;;;;;;;;21.20;42.27;99749.85;103921;1292;62137;-81
2023/10/25 12:26:47;;;;;;;;;;;;;;;21.20;42.29;99743.44;103944;1293;62066;-81
2023/10/25 12:29:12;;;;;;;;;;;;;;;21.20;42.28;99744.52;104190;1293;62199;-81